sensor_id;sensor_type;location;lat;lon;timestamp;temperature;humidity
21844;DHT22;11084;52.482;9.108;2022-12-26T00:07:46;8.60;99.90
21844;DHT22;11084;52.482;9.108;2022-12-26T00:17:33;8.60;99.90
21844;DHT22;11084;52.482;9.108;2022-12-26T00:22:27;8.60;99.90
21844;DHT22;11084;52.482;9.108;2022-12-26T00:24:53;8.60;99.90
21844;DHT22;11084;52.482;9.108;2022-12-26T00:29:46;8.60;99.90
21844;DHT22;11084;52.482;9.108;2022-12-26T00:32:12;8.60;99.90
21844;DHT22;11084;52.482;9.108;2022-12-26T00:34:39;8.60;99.90
21844;DHT22;11084;52.482;9.108;2022-12-26T00:37:05;8.50;99.90
21844;DHT22;11084;52.482;9.108;2022-12-26T00:44:26;8.50;99.90
21844;DHT22;11084;52.482;9.108;2022-12-26T00:49:21;8.60;99.90
21844;DHT22;11084;52.482;9.108;2022-12-26T00:51:48;8.50;99.90
21844;DHT22;11084;52.482;9.108;2022-12-26T00:54:15;8.50;99.90
21844;DHT22;11084;52.482;9.108;2022-12-26T00:56:42;8.50;99.90
21844;DHT22;11084;52.482;9.108;2022-12-26T00:59:13;8.50;99.90
21844;DHT22;11084;52.482;9.108;2022-12-26T01:01:39;8.50;99.90
21844;DHT22;11084;52.482;9.108;2022-12-26T01:04:09;8.50;99.90
21844;DHT22;11084;52.482;9.108;2022-12-26T01:06:37;8.50;99.90
21844;DHT22;11084;52.482;9.108;2022-12-26T01:09:04;8.50;99.90
21844;DHT22;11084;52.482;9.108;2022-12-26T01:14:13;8.50;99.90
21844;DHT22;11084;52.482;9.108;2022-12-26T01:16:44;8.50;99.90
21844;DHT22;11084;52.482;9.108;2022-12-26T01:19:13;8.50;99.90
21844;DHT22;11084;52.482;9.108;2022-12-26T01:21:40;8.50;99.90
21844;DHT22;11084;52.482;9.108;2022-12-26T01:24:08;8.50;99.90
21844;DHT22;11084;52.482;9.108;2022-12-26T01:26:35;8.50;99.90
21844;DHT22;11084;52.482;9.108;2022-12-26T01:29:01;8.40;99.90
21844;DHT22;11084;52.482;9.108;2022-12-26T01:31:28;8.40;99.90
21844;DHT22;11084;52.482;9.108;2022-12-26T01:33:55;8.50;99.90
21844;DHT22;11084;52.482;9.108;2022-12-26T01:36:25;8.40;99.90
21844;DHT22;11084;52.482;9.108;2022-12-26T01:38:55;8.40;99.90
21844;DHT22;11084;52.482;9.108;2022-12-26T01:41:21;8.50;99.90
21844;DHT22;11084;52.482;9.108;2022-12-26T01:43:57;8.50;99.90
21844;DHT22;11084;52.482;9.108;2022-12-26T01:46:43;8.40;99.90
21844;DHT22;11084;52.482;9.108;2022-12-26T01:49:18;8.40;99.90
21844;DHT22;11084;52.482;9.108;2022-12-26T01:51:51;8.40;99.90
21844;DHT22;11084;52.482;9.108;2022-12-26T01:54:21;8.40;99.90
21844;DHT22;11084;52.482;9.108;2022-12-26T01:56:50;8.40;99.90
21844;DHT22;11084;52.482;9.108;2022-12-26T01:59:23;8.40;99.90
21844;DHT22;11084;52.482;9.108;2022-12-26T02:01:52;8.40;99.90
21844;DHT22;11084;52.482;9.108;2022-12-26T02:04:25;8.40;99.90
21844;DHT22;11084;52.482;9.108;2022-12-26T02:07:13;8.40;99.90
21844;DHT22;11084;52.482;9.108;2022-12-26T02:09:39;8.40;99.90
21844;DHT22;11084;52.482;9.108;2022-12-26T02:12:24;8.40;99.90
21844;DHT22;11084;52.482;9.108;2022-12-26T02:14:57;8.40;99.90
21844;DHT22;11084;52.482;9.108;2022-12-26T02:17:24;8.40;99.90
21844;DHT22;11084;52.482;9.108;2022-12-26T02:20:25;8.40;99.90
21844;DHT22;11084;52.482;9.108;2022-12-26T02:29:04;8.40;99.90
21844;DHT22;11084;52.482;9.108;2022-12-26T02:32:24;8.30;99.90
21844;DHT22;11084;52.482;9.108;2022-12-26T02:44:20;8.30;99.90
21844;DHT22;11084;52.482;9.108;2022-12-26T02:50:32;8.30;99.90
21844;DHT22;11084;52.482;9.108;2022-12-26T02:53:42;8.30;99.90
21844;DHT22;11084;52.482;9.108;2022-12-26T02:56:50;8.30;99.90
21844;DHT22;11084;52.482;9.108;2022-12-26T03:00:00;8.30;99.90
21844;DHT22;11084;52.482;9.108;2022-12-26T03:02:55;8.30;99.90
21844;DHT22;11084;52.482;9.108;2022-12-26T03:06:02;8.30;99.90
21844;DHT22;11084;52.482;9.108;2022-12-26T03:09:01;8.30;99.90
21844;DHT22;11084;52.482;9.108;2022-12-26T03:11:51;8.30;99.90
21844;DHT22;11084;52.482;9.108;2022-12-26T03:14:46;8.30;99.90
21844;DHT22;11084;52.482;9.108;2022-12-26T03:17:27;8.30;99.90
21844;DHT22;11084;52.482;9.108;2022-12-26T03:20:31;8.30;99.90
21844;DHT22;11084;52.482;9.108;2022-12-26T03:23:08;8.30;99.90
21844;DHT22;11084;52.482;9.108;2022-12-26T03:25:45;8.30;99.90
21844;DHT22;11084;52.482;9.108;2022-12-26T03:28:40;8.30;99.90
21844;DHT22;11084;52.482;9.108;2022-12-26T03:31:11;8.30;99.90
21844;DHT22;11084;52.482;9.108;2022-12-26T03:33:42;8.30;99.90
21844;DHT22;11084;52.482;9.108;2022-12-26T03:36:54;8.30;99.90
21844;DHT22;11084;52.482;9.108;2022-12-26T03:39:48;8.30;99.90
21844;DHT22;11084;52.482;9.108;2022-12-26T03:42:59;8.30;99.90
21844;DHT22;11084;52.482;9.108;2022-12-26T03:49:29;8.30;99.90
21844;DHT22;11084;52.482;9.108;2022-12-26T03:52:27;8.30;99.90
21844;DHT22;11084;52.482;9.108;2022-12-26T03:58:40;8.30;99.90
21844;DHT22;11084;52.482;9.108;2022-12-26T04:01:48;8.30;99.90
21844;DHT22;11084;52.482;9.108;2022-12-26T04:04:36;8.30;99.90
21844;DHT22;11084;52.482;9.108;2022-12-26T04:07:33;8.30;99.90
21844;DHT22;11084;52.482;9.108;2022-12-26T04:10:44;8.30;99.90
21844;DHT22;11084;52.482;9.108;2022-12-26T04:13:54;8.40;99.90
21844;DHT22;11084;52.482;9.108;2022-12-26T04:19:43;8.30;99.90
21844;DHT22;11084;52.482;9.108;2022-12-26T04:22:22;8.30;99.90
21844;DHT22;11084;52.482;9.108;2022-12-26T04:25:23;8.30;99.90
21844;DHT22;11084;52.482;9.108;2022-12-26T04:28:12;8.50;99.90
21844;DHT22;11084;52.482;9.108;2022-12-26T04:31:13;8.30;99.90
21844;DHT22;11084;52.482;9.108;2022-12-26T04:34:17;8.20;99.90
21844;DHT22;11084;52.482;9.108;2022-12-26T04:37:09;8.30;99.90
21844;DHT22;11084;52.482;9.108;2022-12-26T04:40:00;8.20;99.90
21844;DHT22;11084;52.482;9.108;2022-12-26T04:42:46;8.20;99.90
21844;DHT22;11084;52.482;9.108;2022-12-26T04:45:33;8.20;99.90
21844;DHT22;11084;52.482;9.108;2022-12-26T04:47:59;8.20;99.90
21844;DHT22;11084;52.482;9.108;2022-12-26T04:50:53;8.20;99.90
21844;DHT22;11084;52.482;9.108;2022-12-26T04:53:19;8.20;99.90
21844;DHT22;11084;52.482;9.108;2022-12-26T05:03:07;8.10;99.90
21844;DHT22;11084;52.482;9.108;2022-12-26T05:05:54;8.10;99.90
21844;DHT22;11084;52.482;9.108;2022-12-26T05:08:43;8.10;99.90
21844;DHT22;11084;52.482;9.108;2022-12-26T05:11:30;8.00;99.90
21844;DHT22;11084;52.482;9.108;2022-12-26T05:16:26;8.00;99.90
21844;DHT22;11084;52.482;9.108;2022-12-26T05:19:13;7.90;99.90
21844;DHT22;11084;52.482;9.108;2022-12-26T05:22:03;7.90;99.90
21844;DHT22;11084;52.482;9.108;2022-12-26T05:24:48;7.90;99.90
21844;DHT22;11084;52.482;9.108;2022-12-26T05:27:38;7.80;99.90
21844;DHT22;11084;52.482;9.108;2022-12-26T05:30:24;7.80;99.90
21844;DHT22;11084;52.482;9.108;2022-12-26T05:32:50;7.70;99.90
21844;DHT22;11084;52.482;9.108;2022-12-26T05:35:35;7.70;99.90
21844;DHT22;11084;52.482;9.108;2022-12-26T05:40:27;7.70;99.90
21844;DHT22;11084;52.482;9.108;2022-12-26T05:50:12;7.60;99.90
21844;DHT22;11084;52.482;9.108;2022-12-26T05:55:05;7.50;99.90
21844;DHT22;11084;52.482;9.108;2022-12-26T06:21:55;7.60;99.90
21844;DHT22;11084;52.482;9.108;2022-12-26T06:29:14;7.60;99.90
21844;DHT22;11084;52.482;9.108;2022-12-26T06:46:22;7.70;99.90
21844;DHT22;11084;52.482;9.108;2022-12-26T06:51:21;7.70;99.90
21844;DHT22;11084;52.482;9.108;2022-12-26T06:53:49;7.70;99.90
21844;DHT22;11084;52.482;9.108;2022-12-26T06:56:27;7.70;99.90
21844;DHT22;11084;52.482;9.108;2022-12-26T06:58:54;7.70;99.90
21844;DHT22;11084;52.482;9.108;2022-12-26T07:01:22;7.70;99.90
21844;DHT22;11084;52.482;9.108;2022-12-26T07:03:51;7.60;99.90
21844;DHT22;11084;52.482;9.108;2022-12-26T07:06:41;7.60;99.90
21844;DHT22;11084;52.482;9.108;2022-12-26T07:09:12;7.60;99.90
21844;DHT22;11084;52.482;9.108;2022-12-26T07:11:43;7.60;99.90
21844;DHT22;11084;52.482;9.108;2022-12-26T07:14:10;7.60;99.90
21844;DHT22;11084;52.482;9.108;2022-12-26T07:16:38;7.60;99.90
21844;DHT22;11084;52.482;9.108;2022-12-26T07:21:37;7.50;99.90
21844;DHT22;11084;52.482;9.108;2022-12-26T07:24:04;7.50;99.90
21844;DHT22;11084;52.482;9.108;2022-12-26T07:26:30;7.50;99.90
21844;DHT22;11084;52.482;9.108;2022-12-26T07:28:57;7.50;99.90
21844;DHT22;11084;52.482;9.108;2022-12-26T07:31:25;7.50;99.90
21844;DHT22;11084;52.482;9.108;2022-12-26T07:33:54;7.50;99.90
21844;DHT22;11084;52.482;9.108;2022-12-26T07:36:21;7.50;99.90
21844;DHT22;11084;52.482;9.108;2022-12-26T07:38:48;7.50;99.90
21844;DHT22;11084;52.482;9.108;2022-12-26T07:41:16;7.40;99.90
21844;DHT22;11084;52.482;9.108;2022-12-26T07:46:27;7.40;99.90
21844;DHT22;11084;52.482;9.108;2022-12-26T07:51:20;7.40;99.90
21844;DHT22;11084;52.482;9.108;2022-12-26T07:53:46;7.40;99.90
21844;DHT22;11084;52.482;9.108;2022-12-26T08:01:06;7.40;99.90
21844;DHT22;11084;52.482;9.108;2022-12-26T08:03:33;7.40;99.90
21844;DHT22;11084;52.482;9.108;2022-12-26T08:11:00;7.50;99.90
21844;DHT22;11084;52.482;9.108;2022-12-26T08:13:27;7.50;99.90
21844;DHT22;11084;52.482;9.108;2022-12-26T08:15:54;7.50;99.90
21844;DHT22;11084;52.482;9.108;2022-12-26T08:18:21;7.50;99.90
21844;DHT22;11084;52.482;9.108;2022-12-26T08:23:14;7.60;99.90
21844;DHT22;11084;52.482;9.108;2022-12-26T08:25:41;7.60;99.90
21844;DHT22;11084;52.482;9.108;2022-12-26T08:28:07;7.60;99.90
21844;DHT22;11084;52.482;9.108;2022-12-26T08:30:38;7.60;99.90
21844;DHT22;11084;52.482;9.108;2022-12-26T08:33:06;7.60;99.90
21844;DHT22;11084;52.482;9.108;2022-12-26T08:35:35;7.60;99.90
21844;DHT22;11084;52.482;9.108;2022-12-26T08:38:03;7.70;99.90
21844;DHT22;11084;52.482;9.108;2022-12-26T08:47:49;7.80;99.90
21844;DHT22;11084;52.482;9.108;2022-12-26T08:50:16;7.80;99.90
21844;DHT22;11084;52.482;9.108;2022-12-26T08:52:42;7.80;99.90
21844;DHT22;11084;52.482;9.108;2022-12-26T08:57:35;7.80;99.90
21844;DHT22;11084;52.482;9.108;2022-12-26T09:00:01;7.90;99.90
21844;DHT22;11084;52.482;9.108;2022-12-26T09:02:29;7.90;99.90
21844;DHT22;11084;52.482;9.108;2022-12-26T09:04:55;7.90;99.90
21844;DHT22;11084;52.482;9.108;2022-12-26T09:09:50;8.00;99.90
21844;DHT22;11084;52.482;9.108;2022-12-26T09:12:18;8.10;99.90
21844;DHT22;11084;52.482;9.108;2022-12-26T09:14:45;8.10;99.90
21844;DHT22;11084;52.482;9.108;2022-12-26T09:17:12;8.10;99.90
21844;DHT22;11084;52.482;9.108;2022-12-26T09:19:38;8.10;99.90
21844;DHT22;11084;52.482;9.108;2022-12-26T09:22:05;8.20;99.90
21844;DHT22;11084;52.482;9.108;2022-12-26T09:24:51;8.30;99.90
21844;DHT22;11084;52.482;9.108;2022-12-26T09:27:17;8.30;99.90
21844;DHT22;11084;52.482;9.108;2022-12-26T09:29:43;8.40;99.90
21844;DHT22;11084;52.482;9.108;2022-12-26T09:37:02;8.50;99.90
21844;DHT22;11084;52.482;9.108;2022-12-26T09:39:29;8.50;99.90
21844;DHT22;11084;52.482;9.108;2022-12-26T09:45:16;8.60;99.90
21844;DHT22;11084;52.482;9.108;2022-12-26T09:48:11;8.60;99.90
21844;DHT22;11084;52.482;9.108;2022-12-26T09:50:41;8.70;99.90
21844;DHT22;11084;52.482;9.108;2022-12-26T09:53:25;8.70;99.90
21844;DHT22;11084;52.482;9.108;2022-12-26T09:56:10;8.70;99.90
21844;DHT22;11084;52.482;9.108;2022-12-26T09:58:52;8.70;99.90
21844;DHT22;11084;52.482;9.108;2022-12-26T10:01:27;8.80;99.90
21844;DHT22;11084;52.482;9.108;2022-12-26T10:03:57;8.80;99.90
21844;DHT22;11084;52.482;9.108;2022-12-26T10:06:33;8.90;99.90
21844;DHT22;11084;52.482;9.108;2022-12-26T10:17:52;8.90;99.90
21844;DHT22;11084;52.482;9.108;2022-12-26T10:20:52;8.90;99.90
21844;DHT22;11084;52.482;9.108;2022-12-26T10:26:15;8.90;99.90
21844;DHT22;11084;52.482;9.108;2022-12-26T10:28:51;9.00;99.90
21844;DHT22;11084;52.482;9.108;2022-12-26T10:31:34;9.00;99.90
21844;DHT22;11084;52.482;9.108;2022-12-26T10:37:00;9.10;99.90
21844;DHT22;11084;52.482;9.108;2022-12-26T10:42:33;9.30;99.90
21844;DHT22;11084;52.482;9.108;2022-12-26T10:45:06;9.30;99.90
21844;DHT22;11084;52.482;9.108;2022-12-26T10:47:42;9.40;99.90
21844;DHT22;11084;52.482;9.108;2022-12-26T10:50:28;9.40;99.90
21844;DHT22;11084;52.482;9.108;2022-12-26T10:52:57;9.50;99.90
21844;DHT22;11084;52.482;9.108;2022-12-26T10:55:34;9.50;99.90
21844;DHT22;11084;52.482;9.108;2022-12-26T10:58:17;9.60;99.90
21844;DHT22;11084;52.482;9.108;2022-12-26T11:03:11;9.60;99.90
21844;DHT22;11084;52.482;9.108;2022-12-26T11:05:50;9.50;99.90
21844;DHT22;11084;52.482;9.108;2022-12-26T11:08:38;9.70;99.90
21844;DHT22;11084;52.482;9.108;2022-12-26T11:11:23;9.70;99.90
21844;DHT22;11084;52.482;9.108;2022-12-26T11:13:55;9.70;99.90
21844;DHT22;11084;52.482;9.108;2022-12-26T11:16:26;9.70;99.90
21844;DHT22;11084;52.482;9.108;2022-12-26T11:18:55;9.80;99.90
21844;DHT22;11084;52.482;9.108;2022-12-26T11:21:24;9.80;99.90
21844;DHT22;11084;52.482;9.108;2022-12-26T11:26:36;9.90;99.90
21844;DHT22;11084;52.482;9.108;2022-12-26T11:29:20;10.00;99.90
21844;DHT22;11084;52.482;9.108;2022-12-26T11:32:01;10.00;99.90
21844;DHT22;11084;52.482;9.108;2022-12-26T11:34:33;9.90;99.90
21844;DHT22;11084;52.482;9.108;2022-12-26T11:37:02;9.90;99.90
21844;DHT22;11084;52.482;9.108;2022-12-26T11:39:33;9.90;99.90
21844;DHT22;11084;52.482;9.108;2022-12-26T11:42:11;9.90;99.90
21844;DHT22;11084;52.482;9.108;2022-12-26T11:44:45;9.90;99.90
21844;DHT22;11084;52.482;9.108;2022-12-26T11:47:19;9.80;99.90
21844;DHT22;11084;52.482;9.108;2022-12-26T11:50:18;9.80;99.90
21844;DHT22;11084;52.482;9.108;2022-12-26T12:00:38;9.90;99.90
21844;DHT22;11084;52.482;9.108;2022-12-26T12:03:30;9.90;99.90
21844;DHT22;11084;52.482;9.108;2022-12-26T12:06:10;9.90;99.90
21844;DHT22;11084;52.482;9.108;2022-12-26T12:18:02;10.00;99.90
21844;DHT22;11084;52.482;9.108;2022-12-26T12:26:08;10.10;99.90
21844;DHT22;11084;52.482;9.108;2022-12-26T12:32:04;10.10;99.90
21844;DHT22;11084;52.482;9.108;2022-12-26T12:57:39;9.90;99.90
21844;DHT22;11084;52.482;9.108;2022-12-26T13:06:04;9.70;99.90
21844;DHT22;11084;52.482;9.108;2022-12-26T13:08:44;9.60;99.90
21844;DHT22;11084;52.482;9.108;2022-12-26T13:11:30;9.70;99.90
21844;DHT22;11084;52.482;9.108;2022-12-26T13:20:04;9.40;99.90
21844;DHT22;11084;52.482;9.108;2022-12-26T13:22:34;9.40;99.90
21844;DHT22;11084;52.482;9.108;2022-12-26T13:25:34;9.30;99.90
21844;DHT22;11084;52.482;9.108;2022-12-26T13:28:10;9.30;99.90
21844;DHT22;11084;52.482;9.108;2022-12-26T13:33:13;9.10;99.90
21844;DHT22;11084;52.482;9.108;2022-12-26T13:40:57;9.00;99.90
21844;DHT22;11084;52.482;9.108;2022-12-26T13:44:07;8.90;99.90
21844;DHT22;11084;52.482;9.108;2022-12-26T13:46:54;8.80;99.90
21844;DHT22;11084;52.482;9.108;2022-12-26T13:49:40;8.80;99.90
21844;DHT22;11084;52.482;9.108;2022-12-26T14:00:43;8.40;99.90
21844;DHT22;11084;52.482;9.108;2022-12-26T14:14:35;8.10;99.90
21844;DHT22;11084;52.482;9.108;2022-12-26T14:29:11;7.60;99.90
21844;DHT22;11084;52.482;9.108;2022-12-26T14:40:28;7.60;99.90
21844;DHT22;11084;52.482;9.108;2022-12-26T14:45:51;7.20;99.90
21844;DHT22;11084;52.482;9.108;2022-12-26T14:50:49;7.10;99.90
21844;DHT22;11084;52.482;9.108;2022-12-26T14:53:43;7.10;99.90
21844;DHT22;11084;52.482;9.108;2022-12-26T15:15:30;6.50;99.90
21844;DHT22;11084;52.482;9.108;2022-12-26T15:33:58;6.20;99.90
21844;DHT22;11084;52.482;9.108;2022-12-26T15:39:26;6.10;99.90
21844;DHT22;11084;52.482;9.108;2022-12-26T15:42:19;6.10;99.90
21844;DHT22;11084;52.482;9.108;2022-12-26T15:45:22;6.00;99.90
21844;DHT22;11084;52.482;9.108;2022-12-26T16:01:58;5.80;99.90
21844;DHT22;11084;52.482;9.108;2022-12-26T16:04:31;5.80;99.90
21844;DHT22;11084;52.482;9.108;2022-12-26T16:13:02;5.70;99.90
21844;DHT22;11084;52.482;9.108;2022-12-26T16:15:32;5.60;99.90
21844;DHT22;11084;52.482;9.108;2022-12-26T16:18:20;5.60;99.90
21844;DHT22;11084;52.482;9.108;2022-12-26T16:20:52;5.60;99.90
21844;DHT22;11084;52.482;9.108;2022-12-26T16:23:41;5.50;99.90
21844;DHT22;11084;52.482;9.108;2022-12-26T16:26:18;5.50;99.90
21844;DHT22;11084;52.482;9.108;2022-12-26T16:28:48;5.40;99.90
21844;DHT22;11084;52.482;9.108;2022-12-26T16:31:25;5.40;99.90
21844;DHT22;11084;52.482;9.108;2022-12-26T16:33:54;5.30;99.90
21844;DHT22;11084;52.482;9.108;2022-12-26T16:36:28;5.30;99.90
21844;DHT22;11084;52.482;9.108;2022-12-26T16:38:55;5.30;99.90
21844;DHT22;11084;52.482;9.108;2022-12-26T16:41:24;5.20;99.90
21844;DHT22;11084;52.482;9.108;2022-12-26T16:43:53;5.10;99.90
21844;DHT22;11084;52.482;9.108;2022-12-26T16:46:25;5.10;99.90
21844;DHT22;11084;52.482;9.108;2022-12-26T16:49:00;5.00;99.90
21844;DHT22;11084;52.482;9.108;2022-12-26T16:51:42;4.90;99.90
21844;DHT22;11084;52.482;9.108;2022-12-26T16:54:29;4.90;99.90
21844;DHT22;11084;52.482;9.108;2022-12-26T16:57:10;4.80;99.90
21844;DHT22;11084;52.482;9.108;2022-12-26T16:59:58;4.70;99.90
21844;DHT22;11084;52.482;9.108;2022-12-26T17:02:28;4.60;99.90
21844;DHT22;11084;52.482;9.108;2022-12-26T17:05:18;4.60;99.90
21844;DHT22;11084;52.482;9.108;2022-12-26T17:07:48;4.50;99.90
21844;DHT22;11084;52.482;9.108;2022-12-26T17:10:31;4.50;99.90
21844;DHT22;11084;52.482;9.108;2022-12-26T17:13:02;4.40;99.90
21844;DHT22;11084;52.482;9.108;2022-12-26T17:15:33;4.30;99.90
21844;DHT22;11084;52.482;9.108;2022-12-26T17:18:35;4.30;99.90
21844;DHT22;11084;52.482;9.108;2022-12-26T17:21:37;4.20;99.90
21844;DHT22;11084;52.482;9.108;2022-12-26T17:24:20;4.10;99.90
21844;DHT22;11084;52.482;9.108;2022-12-26T17:26:51;4.10;99.90
21844;DHT22;11084;52.482;9.108;2022-12-26T17:29:59;4.00;99.90
21844;DHT22;11084;52.482;9.108;2022-12-26T17:32:36;3.90;99.90
21844;DHT22;11084;52.482;9.108;2022-12-26T17:35:13;3.90;99.90
21844;DHT22;11084;52.482;9.108;2022-12-26T17:37:43;3.80;99.90
21844;DHT22;11084;52.482;9.108;2022-12-26T17:45:18;3.70;99.90
21844;DHT22;11084;52.482;9.108;2022-12-26T17:47:52;3.60;99.90
21844;DHT22;11084;52.482;9.108;2022-12-26T17:50:21;3.60;99.90
21844;DHT22;11084;52.482;9.108;2022-12-26T17:52:49;3.60;99.90
21844;DHT22;11084;52.482;9.108;2022-12-26T17:55:18;3.60;99.90
21844;DHT22;11084;52.482;9.108;2022-12-26T18:00:18;3.40;99.90
21844;DHT22;11084;52.482;9.108;2022-12-26T18:05:13;3.40;99.90
21844;DHT22;11084;52.482;9.108;2022-12-26T18:10:16;3.20;99.90
21844;DHT22;11084;52.482;9.108;2022-12-26T18:17:39;3.20;99.90
21844;DHT22;11084;52.482;9.108;2022-12-26T18:20:06;3.10;99.90
21844;DHT22;11084;52.482;9.108;2022-12-26T18:22:33;3.10;99.90
21844;DHT22;11084;52.482;9.108;2022-12-26T18:27:30;3.00;99.90
21844;DHT22;11084;52.482;9.108;2022-12-26T18:32:27;3.00;99.90
21844;DHT22;11084;52.482;9.108;2022-12-26T18:37:23;2.90;99.90
21844;DHT22;11084;52.482;9.108;2022-12-26T18:42:17;2.90;99.90
21844;DHT22;11084;52.482;9.108;2022-12-26T18:47:15;4.10;99.90
21844;DHT22;11084;52.482;9.108;2022-12-26T18:49:43;2.80;99.90
21844;DHT22;11084;52.482;9.108;2022-12-26T18:54:36;2.80;99.90
21844;DHT22;11084;52.482;9.108;2022-12-26T18:57:06;2.70;99.90
21844;DHT22;11084;52.482;9.108;2022-12-26T19:02:00;2.60;99.90
21844;DHT22;11084;52.482;9.108;2022-12-26T19:06:53;2.60;99.90
21844;DHT22;11084;52.482;9.108;2022-12-26T19:11:46;2.50;99.90
21844;DHT22;11084;52.482;9.108;2022-12-26T19:14:20;2.50;99.90
21844;DHT22;11084;52.482;9.108;2022-12-26T19:24:07;2.50;99.90
21844;DHT22;11084;52.482;9.108;2022-12-26T19:29:01;2.50;99.90
21844;DHT22;11084;52.482;9.108;2022-12-26T19:31:27;2.50;99.90
21844;DHT22;11084;52.482;9.108;2022-12-26T19:33:56;2.40;99.90
21844;DHT22;11084;52.482;9.108;2022-12-26T19:38:52;2.40;99.90
21844;DHT22;11084;52.482;9.108;2022-12-26T19:41:20;2.40;99.90
21844;DHT22;11084;52.482;9.108;2022-12-26T19:43:46;2.40;99.90
21844;DHT22;11084;52.482;9.108;2022-12-26T19:46:13;2.40;99.90
21844;DHT22;11084;52.482;9.108;2022-12-26T19:51:11;2.30;99.90
21844;DHT22;11084;52.482;9.108;2022-12-26T19:56:11;2.20;99.90
21844;DHT22;11084;52.482;9.108;2022-12-26T19:58:49;2.30;99.90
21844;DHT22;11084;52.482;9.108;2022-12-26T20:01:18;2.30;99.90
21844;DHT22;11084;52.482;9.108;2022-12-26T20:06:18;2.30;99.90
21844;DHT22;11084;52.482;9.108;2022-12-26T20:08:47;2.20;99.90
21844;DHT22;11084;52.482;9.108;2022-12-26T20:11:20;2.20;99.90
21844;DHT22;11084;52.482;9.108;2022-12-26T20:13:48;2.20;99.90
21844;DHT22;11084;52.482;9.108;2022-12-26T20:16:18;2.20;99.90
21844;DHT22;11084;52.482;9.108;2022-12-26T20:18:45;2.20;99.90
21844;DHT22;11084;52.482;9.108;2022-12-26T20:21:12;2.20;99.90
21844;DHT22;11084;52.482;9.108;2022-12-26T20:23:39;2.20;99.90
21844;DHT22;11084;52.482;9.108;2022-12-26T20:26:15;2.20;99.90
21844;DHT22;11084;52.482;9.108;2022-12-26T20:28:45;2.20;99.90
21844;DHT22;11084;52.482;9.108;2022-12-26T20:31:14;2.20;99.90
21844;DHT22;11084;52.482;9.108;2022-12-26T20:33:43;2.20;99.90
21844;DHT22;11084;52.482;9.108;2022-12-26T20:36:15;2.20;99.90
21844;DHT22;11084;52.482;9.108;2022-12-26T20:41:15;2.20;99.90
21844;DHT22;11084;52.482;9.108;2022-12-26T20:46:20;2.20;99.90
21844;DHT22;11084;52.482;9.108;2022-12-26T20:48:48;2.20;99.90
21844;DHT22;11084;52.482;9.108;2022-12-26T20:51:19;2.20;99.90
21844;DHT22;11084;52.482;9.108;2022-12-26T20:53:48;2.20;99.90
21844;DHT22;11084;52.482;9.108;2022-12-26T20:58:41;2.20;99.90
21844;DHT22;11084;52.482;9.108;2022-12-26T21:01:17;2.20;99.90
21844;DHT22;11084;52.482;9.108;2022-12-26T21:03:46;2.20;99.90
21844;DHT22;11084;52.482;9.108;2022-12-26T21:08:49;2.20;99.90
21844;DHT22;11084;52.482;9.108;2022-12-26T21:11:21;2.20;99.90
21844;DHT22;11084;52.482;9.108;2022-12-26T21:13:57;2.30;99.90
21844;DHT22;11084;52.482;9.108;2022-12-26T21:16:29;2.20;99.90
21844;DHT22;11084;52.482;9.108;2022-12-26T21:21:30;2.30;99.90
21844;DHT22;11084;52.482;9.108;2022-12-26T21:24:00;2.30;99.90
21844;DHT22;11084;52.482;9.108;2022-12-26T21:26:30;2.20;99.90
21844;DHT22;11084;52.482;9.108;2022-12-26T21:28:58;2.20;99.90
21844;DHT22;11084;52.482;9.108;2022-12-26T21:31:27;2.20;99.90
21844;DHT22;11084;52.482;9.108;2022-12-26T21:33:55;2.30;99.90
21844;DHT22;11084;52.482;9.108;2022-12-26T21:36:24;2.20;99.90
21844;DHT22;11084;52.482;9.108;2022-12-26T21:38:51;2.30;99.90
21844;DHT22;11084;52.482;9.108;2022-12-26T21:46:13;3.00;99.90
21844;DHT22;11084;52.482;9.108;2022-12-26T21:51:15;2.30;99.90
21844;DHT22;11084;52.482;9.108;2022-12-26T21:53:44;2.30;99.90
21844;DHT22;11084;52.482;9.108;2022-12-26T21:56:11;2.30;99.90
21844;DHT22;11084;52.482;9.108;2022-12-26T21:58:39;2.30;99.90
21844;DHT22;11084;52.482;9.108;2022-12-26T22:01:25;2.30;99.90
21844;DHT22;11084;52.482;9.108;2022-12-26T22:03:52;2.30;99.90
21844;DHT22;11084;52.482;9.108;2022-12-26T22:06:37;2.30;99.90
21844;DHT22;11084;52.482;9.108;2022-12-26T22:09:05;2.40;99.90
21844;DHT22;11084;52.482;9.108;2022-12-26T22:11:32;2.50;99.90
21844;DHT22;11084;52.482;9.108;2022-12-26T22:14:16;2.50;99.90
21844;DHT22;11084;52.482;9.108;2022-12-26T22:19:09;2.60;99.90
21844;DHT22;11084;52.482;9.108;2022-12-26T22:24:02;2.60;99.90
21844;DHT22;11084;52.482;9.108;2022-12-26T22:28:56;2.60;99.90
21844;DHT22;11084;52.482;9.108;2022-12-26T22:31:30;2.50;99.90
21844;DHT22;11084;52.482;9.108;2022-12-26T22:34:02;2.50;99.90
21844;DHT22;11084;52.482;9.108;2022-12-26T22:36:30;2.50;99.90
21844;DHT22;11084;52.482;9.108;2022-12-26T22:46:17;2.50;99.90
21844;DHT22;11084;52.482;9.108;2022-12-26T22:51:18;2.50;99.90
21844;DHT22;11084;52.482;9.108;2022-12-26T22:53:51;2.50;99.90
21844;DHT22;11084;52.482;9.108;2022-12-26T22:58:44;2.50;99.90
21844;DHT22;11084;52.482;9.108;2022-12-26T23:01:13;2.40;99.90
21844;DHT22;11084;52.482;9.108;2022-12-26T23:06:22;2.50;99.90
21844;DHT22;11084;52.482;9.108;2022-12-26T23:08:51;2.50;99.90
21844;DHT22;11084;52.482;9.108;2022-12-26T23:11:22;2.40;99.90
21844;DHT22;11084;52.482;9.108;2022-12-26T23:13:50;2.40;99.90
21844;DHT22;11084;52.482;9.108;2022-12-26T23:16:31;2.40;99.90
21844;DHT22;11084;52.482;9.108;2022-12-26T23:19:03;2.40;99.90
21844;DHT22;11084;52.482;9.108;2022-12-26T23:22:15;2.40;99.90
21844;DHT22;11084;52.482;9.108;2022-12-26T23:24:42;2.40;99.90
21844;DHT22;11084;52.482;9.108;2022-12-26T23:29:53;2.40;99.90
21844;DHT22;11084;52.482;9.108;2022-12-26T23:32:40;2.40;99.90
21844;DHT22;11084;52.482;9.108;2022-12-26T23:35:09;2.30;99.90
21844;DHT22;11084;52.482;9.108;2022-12-26T23:37:37;2.30;99.90
21844;DHT22;11084;52.482;9.108;2022-12-26T23:40:05;2.30;99.90
21844;DHT22;11084;52.482;9.108;2022-12-26T23:47:26;2.30;99.90
21844;DHT22;11084;52.482;9.108;2022-12-26T23:49:52;2.30;99.90
21844;DHT22;11084;52.482;9.108;2022-12-26T23:54:45;2.30;99.90
21844;DHT22;11084;52.482;9.108;2022-12-26T23:59:37;2.30;99.90
